CheckWX is a tool to help pilots better visualize weather data.  It is not intended as a substitute for an official pre-flight weather briefing.

18:31:34 UTC

KCAD METAR
Wexford County Airport
Cadillac, Michigan, USA
Current

17 mins ago

KCAD 221815Z AUTO 15005KT 10SM CLR 00/M09 A3037 RMK AO2 T00001095
Observed
Feb-22 @ 18:15 UTC
Wind
  • 150° at 5 KTS
Visibility
10 SM
Flight Rules
VFR
Cloud Levels
  • Clear skies
Temperature
C / 32°F
Dewpoint
-10°C / 14°F
Humidity
47%
Altimeter
30.37" Hg
Pressure
1028.42 hPa
Previous

36 mins ago

KCAD 221756Z AUTO 15006KT 10SM CLR 00/M09 A3038 RMK AO2 T00001092
Observed
Feb-22 @ 17:56 UTC
Wind
  • 150° at 6 KTS
Visibility
10 SM
Flight Rules
VFR
Cloud Levels
  • Clear skies
Temperature
C / 32°F
Dewpoint
-9°C / 16°F
Humidity
51%
Altimeter
30.38" Hg
Pressure
1028.81 hPa
Previous

56 mins ago

KCAD 221736Z AUTO 17004KT 10SM CLR 00/M08 A3038 RMK AO2 T10041089
Observed
Feb-22 @ 17:36 UTC
Wind
  • 170° at 4 KTS
Visibility
10 SM
Flight Rules
VFR
Cloud Levels
  • Clear skies
Temperature
-0°C / 32°F
Dewpoint
-9°C / 16°F
Humidity
51%
Altimeter
30.38" Hg
Pressure
1028.81 hPa